createdAt,value
2023-02-17T00:00:27.790Z,49.90
2023-02-17T00:02:58.039Z,49.80
2023-02-17T00:05:26.324Z,49.70
2023-02-17T00:07:55.602Z,49.60
2023-02-17T00:10:23.802Z,49.60
2023-02-17T00:12:52.225Z,49.80
2023-02-17T00:15:20.575Z,49.80
2023-02-17T00:17:50.258Z,49.70
2023-02-17T00:20:18.769Z,49.80
2023-02-17T00:22:48.062Z,49.60
2023-02-17T00:25:16.504Z,49.70
2023-02-17T00:27:44.809Z,49.90
2023-02-17T00:30:13.733Z,50.00
2023-02-17T00:32:42.338Z,49.90
2023-02-17T00:35:11.972Z,50.30
2023-02-17T00:37:45.628Z,49.90
2023-02-17T00:40:14.790Z,50.00
2023-02-17T00:42:44.738Z,50.40
2023-02-17T00:45:12.993Z,50.70
2023-02-17T00:47:45.386Z,50.20
2023-02-17T00:50:17.620Z,50.30
2023-02-17T00:52:46.033Z,50.70
2023-02-17T00:55:14.811Z,50.50
2023-02-17T00:57:43.367Z,50.40
2023-02-17T01:00:12.513Z,50.60
2023-02-17T01:02:41.451Z,50.70
2023-02-17T01:05:10.394Z,50.70
2023-02-17T01:07:41.806Z,50.70
2023-02-17T01:10:11.080Z,50.80
2023-02-17T01:12:41.151Z,50.80
2023-02-17T01:15:10.043Z,50.70
2023-02-17T01:17:38.562Z,50.90
2023-02-17T01:20:08.468Z,50.80
2023-02-17T01:22:38.777Z,50.40
2023-02-17T01:25:08.972Z,50.70
2023-02-17T01:27:39.134Z,50.70
2023-02-17T01:30:08.573Z,50.70
2023-02-17T01:32:38.246Z,50.90
2023-02-17T01:35:08.452Z,50.50
2023-02-17T01:37:37.543Z,50.70
2023-02-17T01:40:08.437Z,50.80
2023-02-17T01:42:37.443Z,50.70
2023-02-17T01:45:30.940Z,50.50
2023-02-17T01:48:05.874Z,50.70
2023-02-17T01:50:40.445Z,50.90
2023-02-17T01:53:12.703Z,50.90
2023-02-17T01:55:43.282Z,51.20
2023-02-17T01:58:15.167Z,51.30
2023-02-17T02:00:44.626Z,51.10
2023-02-17T02:03:15.230Z,51.00
2023-02-17T02:05:44.288Z,51.10
2023-02-17T02:08:14.594Z,51.10
2023-02-17T02:10:44.535Z,51.00
2023-02-17T02:13:13.506Z,51.00
2023-02-17T02:15:48.979Z,51.00
2023-02-17T02:18:33.060Z,51.30
2023-02-17T02:21:34.889Z,50.90
2023-02-17T02:24:22.647Z,51.20
2023-02-17T02:27:29.762Z,50.90
2023-02-17T02:30:24.510Z,50.90
2023-02-17T02:33:17.893Z,51.00
2023-02-17T02:35:53.166Z,51.30
2023-02-17T02:38:26.850Z,51.30
2023-02-17T02:41:02.289Z,51.40
2023-02-17T02:43:32.530Z,51.50
2023-02-17T02:46:01.068Z,51.40
2023-02-17T02:48:31.499Z,51.20
2023-02-17T02:51:22.738Z,51.50
2023-02-17T02:54:07.747Z,51.70
2023-02-17T02:56:48.514Z,51.60
2023-02-17T02:59:28.058Z,51.80
2023-02-17T03:02:07.195Z,51.60
2023-02-17T03:04:40.057Z,51.50
2023-02-17T03:07:12.829Z,51.70
2023-02-17T03:09:42.404Z,52.20
2023-02-17T03:12:10.917Z,51.80
2023-02-17T03:14:40.108Z,52.40
2023-02-17T03:17:08.336Z,52.20
2023-02-17T03:19:38.348Z,52.00
2023-02-17T03:22:10.848Z,52.40
2023-02-17T03:24:39.527Z,52.50
2023-02-17T03:27:07.866Z,52.90
2023-02-17T03:29:36.693Z,52.90
2023-02-17T03:32:05.540Z,53.10
2023-02-17T03:34:33.909Z,53.30
2023-02-17T03:37:05.080Z,53.50
2023-02-17T03:39:33.290Z,53.70
2023-02-17T03:42:01.636Z,53.90
2023-02-17T03:44:30.134Z,53.70
2023-02-17T03:46:58.628Z,54.00
2023-02-17T03:49:26.917Z,53.80
2023-02-17T03:51:58.105Z,53.80
2023-02-17T03:54:28.421Z,53.80
2023-02-17T03:56:57.262Z,54.10
2023-02-17T03:59:25.573Z,54.00
2023-02-17T04:01:54.605Z,54.20
2023-02-17T04:04:22.846Z,54.50
2023-02-17T04:06:51.834Z,54.60
2023-02-17T04:09:22.188Z,54.50
2023-02-17T04:11:52.149Z,54.70
2023-02-17T04:14:20.510Z,54.90
2023-02-17T04:16:50.452Z,54.90
2023-02-17T04:19:21.137Z,54.90
2023-02-17T04:21:50.115Z,55.00
2023-02-17T04:24:18.466Z,55.30
2023-02-17T04:26:47.681Z,54.80
2023-02-17T04:29:18.285Z,55.00
2023-02-17T04:31:47.728Z,55.20
2023-02-17T04:34:18.623Z,55.30
2023-02-17T04:36:47.114Z,54.80
2023-02-17T04:39:16.385Z,55.10
2023-02-17T04:41:45.076Z,55.00
2023-02-17T04:44:13.493Z,55.00
2023-02-17T04:46:43.364Z,54.90
2023-02-17T04:49:11.990Z,55.10
2023-02-17T04:51:40.801Z,55.20
2023-02-17T04:54:10.168Z,55.00
2023-02-17T04:56:38.473Z,55.30
2023-02-17T04:59:07.516Z,55.10
2023-02-17T05:01:36.478Z,55.40
2023-02-17T05:04:08.873Z,55.30
2023-02-17T05:06:37.604Z,55.40
2023-02-17T05:09:07.841Z,55.70
2023-02-17T05:11:36.736Z,55.30
2023-02-17T05:14:07.783Z,55.60
2023-02-17T05:16:38.168Z,55.60
2023-02-17T05:19:08.156Z,55.80
2023-02-17T05:21:37.769Z,55.60
2023-02-17T05:24:07.109Z,55.90
2023-02-17T05:26:37.356Z,55.80
2023-02-17T05:29:06.272Z,55.70
2023-02-17T05:31:35.014Z,56.00
2023-02-17T05:34:04.048Z,55.70
2023-02-17T05:36:35.595Z,55.90
2023-02-17T05:39:04.797Z,56.10
2023-02-17T05:41:34.086Z,55.70
2023-02-17T05:44:02.670Z,56.10
2023-02-17T05:46:32.200Z,56.00
2023-02-17T05:49:01.521Z,56.40
2023-02-17T05:51:29.827Z,56.10
2023-02-17T05:53:59.523Z,56.40
2023-02-17T05:56:29.554Z,56.50
2023-02-17T05:58:57.980Z,56.60
2023-02-17T06:01:26.651Z,56.20
2023-02-17T06:03:54.938Z,56.50
2023-02-17T06:06:24.121Z,56.60
2023-02-17T06:08:53.009Z,56.50
2023-02-17T06:11:22.841Z,56.60
2023-02-17T06:13:51.279Z,56.80
2023-02-17T06:16:19.765Z,56.80
2023-02-17T06:18:48.921Z,56.50
2023-02-17T06:21:18.898Z,56.50
2023-02-17T06:23:47.849Z,56.70
2023-02-17T06:26:18.473Z,57.00
2023-02-17T06:28:48.746Z,56.60
2023-02-17T06:31:17.189Z,56.70
2023-02-17T06:33:45.700Z,57.00
2023-02-17T06:36:16.278Z,56.90
2023-02-17T06:38:45.643Z,57.20
2023-02-17T06:41:14.666Z,57.00
2023-02-17T06:43:43.438Z,57.20
2023-02-17T06:46:13.705Z,57.60
2023-02-17T06:48:42.020Z,57.20
2023-02-17T06:51:10.801Z,57.20
2023-02-17T06:53:39.302Z,57.40
2023-02-17T06:56:08.539Z,57.50
2023-02-17T06:58:37.746Z,57.70
2023-02-17T07:01:08.127Z,57.40
2023-02-17T07:03:38.792Z,57.30
2023-02-17T07:06:07.625Z,57.60
2023-02-17T07:08:36.526Z,57.90
2023-02-17T07:11:06.774Z,57.50
2023-02-17T07:13:36.082Z,57.70
2023-02-17T07:16:06.340Z,57.70
2023-02-17T07:18:37.741Z,57.70
2023-02-17T07:21:09.858Z,58.00
2023-02-17T07:23:39.546Z,58.10
2023-02-17T07:26:10.063Z,57.80
2023-02-17T07:28:41.813Z,58.30
2023-02-17T07:31:11.490Z,57.80
2023-02-17T07:33:40.479Z,58.10
2023-02-17T07:36:12.833Z,58.30
2023-02-17T07:38:42.736Z,57.80
2023-02-17T07:41:13.485Z,58.40
2023-02-17T07:43:42.559Z,58.30
2023-02-17T07:46:12.117Z,57.70
2023-02-17T07:48:41.076Z,58.00
2023-02-17T07:51:14.731Z,58.10
2023-02-17T07:53:44.769Z,58.50
2023-02-17T07:56:15.950Z,58.00
2023-02-17T07:58:46.005Z,57.90
2023-02-17T08:01:17.140Z,58.00
2023-02-17T08:03:46.422Z,58.30
2023-02-17T08:06:17.992Z,57.90
2023-02-17T08:09:04.508Z,58.50
2023-02-17T08:12:02.851Z,58.00
2023-02-17T08:14:33.754Z,58.60
2023-02-17T08:17:04.364Z,58.10
2023-02-17T08:19:48.555Z,58.40
2023-02-17T08:22:19.906Z,58.80
2023-02-17T08:24:48.808Z,58.40
2023-02-17T08:27:18.108Z,58.60
2023-02-17T08:29:47.024Z,58.10
2023-02-17T08:32:16.807Z,58.40
2023-02-17T08:34:46.063Z,58.30
2023-02-17T08:37:14.377Z,58.20
2023-02-17T08:39:44.755Z,58.10
2023-02-17T08:42:14.738Z,57.60
2023-02-17T08:44:43.001Z,57.80
2023-02-17T08:47:12.700Z,58.00
2023-02-17T08:49:42.204Z,57.90
2023-02-17T08:52:10.721Z,56.30
2023-02-17T08:54:39.365Z,56.50
2023-02-17T08:57:09.449Z,57.50
2023-02-17T08:59:37.922Z,56.40
2023-02-17T09:02:06.631Z,56.10
2023-02-17T09:04:35.750Z,55.70
2023-02-17T09:07:04.180Z,56.40
2023-02-17T09:09:32.559Z,56.00
2023-02-17T09:12:02.365Z,55.70
2023-02-17T09:14:32.818Z,55.80
2023-02-17T09:17:02.050Z,55.80
2023-02-17T09:19:31.417Z,55.50
2023-02-17T09:21:59.734Z,55.90
2023-02-17T09:24:29.276Z,56.10
2023-02-17T09:26:57.664Z,56.20
2023-02-17T09:29:26.181Z,56.20
2023-02-17T09:31:56.035Z,55.90
2023-02-17T09:34:27.003Z,55.90
2023-02-17T09:36:55.330Z,55.60
2023-02-17T09:39:26.212Z,55.60
2023-02-17T09:41:59.863Z,55.50
2023-02-17T09:44:34.859Z,55.40
2023-02-17T09:47:10.891Z,55.30
2023-02-17T09:49:45.001Z,55.40
2023-02-17T09:52:19.021Z,55.50
2023-02-17T09:55:04.715Z,55.50
2023-02-17T09:57:38.776Z,55.40
2023-02-17T10:00:14.249Z,55.20
2023-02-17T10:02:52.570Z,55.30
2023-02-17T10:05:26.071Z,55.30
2023-02-17T10:08:05.063Z,55.00
2023-02-17T10:10:41.294Z,55.30
2023-02-17T10:13:20.214Z,55.30
2023-02-17T10:15:52.961Z,55.10
2023-02-17T10:18:31.834Z,55.60
2023-02-17T10:21:07.504Z,55.20
2023-02-17T10:23:36.560Z,55.10
2023-02-17T10:26:16.373Z,55.00
2023-02-17T10:28:52.640Z,54.70
2023-02-17T10:31:32.683Z,55.10
2023-02-17T10:34:05.611Z,54.90
2023-02-17T10:36:48.135Z,54.60
2023-02-17T10:39:31.498Z,54.30
2023-02-17T10:42:03.114Z,54.70
2023-02-17T10:44:37.772Z,54.90
2023-02-17T10:47:06.873Z,54.50
2023-02-17T10:49:41.974Z,54.90
2023-02-17T10:52:14.746Z,54.20
2023-02-17T10:54:49.668Z,54.70
2023-02-17T10:57:20.781Z,54.70
2023-02-17T10:59:50.788Z,54.50
2023-02-17T11:02:22.116Z,54.70
2023-02-17T11:04:55.418Z,54.90
2023-02-17T11:07:32.369Z,54.50
2023-02-17T11:10:20.465Z,54.30
2023-02-17T11:12:50.905Z,54.60
2023-02-17T11:15:21.624Z,54.20
2023-02-17T11:17:50.764Z,54.40
2023-02-17T11:20:34.482Z,54.50
2023-02-17T11:23:21.881Z,54.40
2023-02-17T11:26:00.228Z,54.40
2023-02-17T11:28:29.578Z,54.50
2023-02-17T11:31:00.182Z,54.60
2023-02-17T11:33:36.145Z,54.30
2023-02-17T11:36:10.598Z,54.40
2023-02-17T11:38:44.962Z,54.90
2023-02-17T11:41:14.471Z,54.60
2023-02-17T11:43:53.835Z,54.80
2023-02-17T11:46:32.760Z,54.60
2023-02-17T11:49:31.106Z,54.60
2023-02-17T11:52:11.925Z,54.70
2023-02-17T11:54:56.795Z,54.60
2023-02-17T11:57:38.039Z,54.90
2023-02-17T12:00:17.230Z,54.70
2023-02-17T12:03:01.298Z,54.80
2023-02-17T12:05:42.251Z,54.80
2023-02-17T12:08:23.932Z,55.00
2023-02-17T12:11:05.898Z,54.70
2023-02-17T12:13:44.583Z,54.80
2023-02-17T12:16:22.908Z,54.90
2023-02-17T12:19:03.374Z,54.60
2023-02-17T12:21:46.235Z,54.70
2023-02-17T12:24:38.275Z,54.70
2023-02-17T12:27:12.166Z,54.70
2023-02-17T12:30:05.411Z,54.50
2023-02-17T12:32:53.696Z,54.60
2023-02-17T12:35:26.565Z,54.40
2023-02-17T12:37:59.793Z,54.40
2023-02-17T12:40:39.004Z,54.50
2023-02-17T12:43:23.985Z,54.40
2023-02-17T12:45:54.926Z,54.40
2023-02-17T12:48:29.374Z,54.50
2023-02-17T12:51:03.975Z,54.70
2023-02-17T12:53:47.782Z,54.30
2023-02-17T12:57:05.204Z,54.60
2023-02-17T12:59:37.498Z,54.50
2023-02-17T13:02:07.906Z,54.50
2023-02-17T13:04:37.368Z,54.50
2023-02-17T13:07:27.676Z,55.00
2023-02-17T13:09:58.255Z,54.60
2023-02-17T13:12:59.379Z,54.80
2023-02-17T13:15:40.912Z,54.80
2023-02-17T13:18:14.108Z,54.60
2023-02-17T13:20:58.210Z,54.70
2023-02-17T13:23:38.366Z,54.90
2023-02-17T13:26:17.898Z,54.70
2023-02-17T13:28:49.795Z,54.70
2023-02-17T13:31:22.242Z,54.70
2023-02-17T13:33:54.820Z,55.00
2023-02-17T13:36:36.122Z,55.10
2023-02-17T13:39:08.372Z,55.00
2023-02-17T13:41:47.219Z,54.70
2023-02-17T13:44:35.188Z,54.70
2023-02-17T13:47:13.596Z,55.10
2023-02-17T13:49:42.341Z,54.70
2023-02-17T13:52:17.890Z,54.80
2023-02-17T13:54:56.286Z,54.70
2023-02-17T13:57:27.384Z,54.50
2023-02-17T14:00:10.195Z,54.40
2023-02-17T14:02:48.539Z,54.40
2023-02-17T14:05:20.450Z,54.40
2023-02-17T14:07:58.181Z,54.40
2023-02-17T14:10:28.402Z,54.70
2023-02-17T14:13:03.067Z,54.60
2023-02-17T14:15:32.776Z,54.60
2023-02-17T14:18:14.498Z,54.70
2023-02-17T14:20:43.290Z,55.00
2023-02-17T14:23:14.581Z,55.00
2023-02-17T14:25:47.099Z,55.00
2023-02-17T14:28:21.089Z,55.20
2023-02-17T14:30:50.018Z,55.40
2023-02-17T14:33:24.672Z,55.20
2023-02-17T14:35:55.990Z,55.20
2023-02-17T14:38:27.577Z,55.30
2023-02-17T14:40:56.339Z,55.40
2023-02-17T14:43:26.099Z,55.80
2023-02-17T14:45:55.471Z,55.70
2023-02-17T14:48:28.058Z,55.80
2023-02-17T14:50:59.265Z,55.80
2023-02-17T14:53:32.849Z,56.20
2023-02-17T14:56:05.820Z,56.40
2023-02-17T14:58:36.517Z,56.60
2023-02-17T15:01:05.777Z,56.40
2023-02-17T15:03:37.323Z,56.10
2023-02-17T15:06:13.812Z,56.20
2023-02-17T15:08:45.588Z,56.60
2023-02-17T15:11:21.034Z,56.60
2023-02-17T15:13:50.776Z,56.50
2023-02-17T15:16:19.479Z,56.30
2023-02-17T15:18:51.033Z,56.40
2023-02-17T15:21:27.035Z,56.50
2023-02-17T15:23:56.895Z,56.80
2023-02-17T15:26:26.948Z,56.60
2023-02-17T15:28:57.126Z,56.30
2023-02-17T15:31:36.233Z,56.70
2023-02-17T15:34:11.397Z,56.30
2023-02-17T15:36:40.022Z,55.90
2023-02-17T15:39:11.931Z,56.10
2023-02-17T15:41:41.906Z,55.90
2023-02-17T15:44:15.736Z,56.10
2023-02-17T15:46:46.304Z,56.20
2023-02-17T15:49:16.613Z,56.10
2023-02-17T15:51:45.423Z,56.10
2023-02-17T15:54:19.123Z,56.10
2023-02-17T15:56:52.055Z,56.10
2023-02-17T15:59:25.843Z,56.10
2023-02-17T16:01:56.385Z,55.90
2023-02-17T16:04:27.800Z,56.00
2023-02-17T16:06:56.500Z,55.90
2023-02-17T16:09:26.247Z,56.00
2023-02-17T16:11:57.509Z,55.70
2023-02-17T16:14:33.484Z,55.60
2023-02-17T16:17:05.362Z,55.80
2023-02-17T16:19:35.213Z,55.80
2023-02-17T16:22:05.294Z,56.00
2023-02-17T16:24:35.358Z,56.20
2023-02-17T16:27:08.208Z,55.90
2023-02-17T16:29:37.302Z,55.50
2023-02-17T16:32:09.095Z,55.60
2023-02-17T16:34:39.367Z,55.90
2023-02-17T16:37:15.115Z,55.80
2023-02-17T16:39:44.113Z,55.50
2023-02-17T16:42:16.176Z,55.20
2023-02-17T16:44:45.586Z,55.80
2023-02-17T16:47:22.380Z,55.60
2023-02-17T16:49:52.910Z,55.50
2023-02-17T16:52:25.623Z,55.70
2023-02-17T16:54:55.720Z,55.90
2023-02-17T16:57:24.278Z,55.90
2023-02-17T16:59:52.724Z,55.90
2023-02-17T17:02:22.239Z,56.20
2023-02-17T17:04:52.144Z,56.10
2023-02-17T17:07:20.794Z,55.90
2023-02-17T17:10:14.773Z,55.80
2023-02-17T17:12:38.476Z,56.00
2023-02-17T17:15:07.706Z,56.10
2023-02-17T17:17:40.894Z,56.90
2023-02-17T17:20:15.217Z,56.60
2023-02-17T17:22:45.128Z,56.40
2023-02-17T17:25:14.910Z,56.60
2023-02-17T17:27:45.965Z,56.80
2023-02-17T17:30:18.644Z,56.40
2023-02-17T17:32:47.474Z,56.30
2023-02-17T17:35:18.331Z,56.60
2023-02-17T17:37:48.726Z,56.60
2023-02-17T17:40:21.098Z,56.70
2023-02-17T17:42:49.434Z,56.90
2023-02-17T17:45:18.077Z,56.90
2023-02-17T17:47:47.553Z,56.90
2023-02-17T17:50:20.331Z,56.90
2023-02-17T17:52:49.307Z,56.50
2023-02-17T17:55:17.980Z,57.00
2023-02-17T17:57:48.215Z,57.00
2023-02-17T18:00:19.834Z,56.90
2023-02-17T18:02:48.442Z,56.40
2023-02-17T18:05:18.836Z,57.00
2023-02-17T18:07:51.751Z,56.70
2023-02-17T18:10:20.186Z,56.70
2023-02-17T18:12:49.714Z,56.80
2023-02-17T18:15:22.064Z,56.60
2023-02-17T18:17:52.996Z,57.20
2023-02-17T18:20:23.562Z,56.90
2023-02-17T18:22:52.332Z,56.60
2023-02-17T18:25:20.689Z,56.60
2023-02-17T18:27:49.208Z,56.70
2023-02-17T18:30:19.477Z,56.90
2023-02-17T18:32:49.474Z,56.70
2023-02-17T18:35:19.409Z,56.60
2023-02-17T18:37:49.488Z,57.10
2023-02-17T18:40:20.306Z,57.50
2023-02-17T18:42:50.741Z,57.60
2023-02-17T18:45:21.550Z,58.10
2023-02-17T18:47:50.123Z,57.90
2023-02-17T18:50:19.897Z,58.50
2023-02-17T18:52:51.218Z,58.30
2023-02-17T18:55:20.063Z,58.90
2023-02-17T18:57:49.714Z,59.10
2023-02-17T19:00:19.337Z,59.70
2023-02-17T19:02:47.753Z,59.70
2023-02-17T19:05:18.140Z,59.80
2023-02-17T19:07:47.382Z,60.00
2023-02-17T19:10:18.441Z,60.10
2023-02-17T19:12:54.680Z,60.80
2023-02-17T19:15:24.283Z,61.30
2023-02-17T19:17:56.636Z,61.50
2023-02-17T19:20:27.542Z,61.80
2023-02-17T19:22:59.620Z,62.40
2023-02-17T19:25:34.101Z,62.20
2023-02-17T19:28:05.503Z,62.40
2023-02-17T19:30:34.781Z,62.70
2023-02-17T19:33:05.498Z,63.00
2023-02-17T19:35:37.007Z,63.10
2023-02-17T19:38:07.132Z,63.80
2023-02-17T19:40:37.054Z,63.80
2023-02-17T19:43:06.453Z,63.90
2023-02-17T19:45:37.224Z,63.90
2023-02-17T19:48:07.277Z,63.90
2023-02-17T19:50:39.140Z,64.10
2023-02-17T19:53:08.762Z,63.90
2023-02-17T19:55:39.894Z,63.90
2023-02-17T19:58:09.456Z,64.50
2023-02-17T20:00:38.660Z,64.10
2023-02-17T20:03:08.641Z,64.20
2023-02-17T20:05:42.132Z,64.00
2023-02-17T20:08:11.321Z,64.30
2023-02-17T20:10:44.935Z,64.20
2023-02-17T20:13:14.547Z,64.10
2023-02-17T20:15:44.546Z,64.30
2023-02-17T20:18:13.417Z,64.10
2023-02-17T20:20:46.031Z,63.90
2023-02-17T20:23:14.871Z,63.60
2023-02-17T20:25:45.085Z,64.10
2023-02-17T20:28:14.754Z,64.20
2023-02-17T20:30:43.474Z,64.20
2023-02-17T20:33:13.948Z,63.80
2023-02-17T20:35:42.481Z,64.10
2023-02-17T20:38:11.247Z,64.10
2023-02-17T20:40:39.995Z,63.50
2023-02-17T20:43:12.295Z,63.50
2023-02-17T20:45:42.966Z,63.40
2023-02-17T20:48:12.190Z,63.50
2023-02-17T20:50:40.992Z,63.50
2023-02-17T20:53:09.892Z,63.70
2023-02-17T20:55:38.435Z,63.30
2023-02-17T20:58:10.294Z,63.50
2023-02-17T21:00:41.746Z,63.30
2023-02-17T21:03:11.681Z,63.30
2023-02-17T21:05:40.148Z,63.30
2023-02-17T21:08:08.436Z,63.30
2023-02-17T21:10:39.816Z,62.80
2023-02-17T21:13:18.014Z,62.50
2023-02-17T21:15:48.785Z,62.50
2023-02-17T21:18:21.027Z,62.90
2023-02-17T21:20:52.463Z,62.60
2023-02-17T21:23:22.544Z,62.70
2023-02-17T21:25:57.268Z,62.40
2023-02-17T21:28:30.439Z,62.20
2023-02-17T21:31:01.466Z,62.20
2023-02-17T21:33:32.114Z,62.10
2023-02-17T21:36:07.150Z,62.00
2023-02-17T21:38:37.788Z,62.20
2023-02-17T21:41:11.168Z,61.80
2023-02-17T21:44:08.443Z,62.10
2023-02-17T21:46:40.293Z,62.10
2023-02-17T21:49:10.669Z,61.90
2023-02-17T21:51:41.200Z,61.50
2023-02-17T21:54:11.394Z,61.80
2023-02-17T21:56:42.072Z,61.90
2023-02-17T21:59:10.767Z,62.10
2023-02-17T22:01:40.612Z,61.90
2023-02-17T22:04:09.615Z,62.10
2023-02-17T22:06:40.738Z,61.80
2023-02-17T22:09:12.221Z,61.80
2023-02-17T22:11:43.462Z,61.80
2023-02-17T22:14:15.227Z,61.70
2023-02-17T22:16:46.376Z,61.80
2023-02-17T22:19:17.852Z,61.30
2023-02-17T22:21:47.665Z,61.30
2023-02-17T22:24:17.504Z,61.30
2023-02-17T22:26:46.107Z,60.90
2023-02-17T22:29:15.159Z,61.30
2023-02-17T22:31:46.523Z,60.90
2023-02-17T22:34:15.584Z,60.60
2023-02-17T22:36:43.992Z,61.00
2023-02-17T22:39:12.530Z,60.90
2023-02-17T22:41:40.903Z,61.00
2023-02-17T22:44:10.380Z,60.90
2023-02-17T22:46:39.836Z,61.00
2023-02-17T22:49:09.426Z,60.80
2023-02-17T22:51:40.688Z,60.80
2023-02-17T22:54:09.740Z,60.50
2023-02-17T22:56:39.210Z,60.30
2023-02-17T22:59:08.731Z,60.80
2023-02-17T23:01:38.388Z,60.10
2023-02-17T23:04:13.763Z,59.80
2023-02-17T23:06:43.366Z,59.70
2023-02-17T23:09:20.360Z,59.20
2023-02-17T23:11:53.798Z,59.20
2023-02-17T23:14:27.026Z,59.50
2023-02-17T23:16:59.846Z,59.20
2023-02-17T23:19:30.615Z,59.00
2023-02-17T23:22:02.428Z,59.20
2023-02-17T23:24:31.902Z,59.10
2023-02-17T23:27:01.917Z,58.90
2023-02-17T23:29:32.314Z,58.90
2023-02-17T23:32:00.845Z,58.90
2023-02-17T23:38:36.240Z,58.60
2023-02-17T23:41:05.292Z,59.00
2023-02-17T23:43:35.231Z,58.90
2023-02-17T23:46:04.734Z,59.00
2023-02-17T23:48:33.389Z,58.90
2023-02-17T23:51:04.981Z,59.00
2023-02-17T23:53:34.466Z,59.40
2023-02-17T23:56:07.039Z,59.40
2023-02-17T23:58:36.813Z,59.70
